Time;durP1;ratioP1;P1;durP2;ratioP2;P2;SDS_P1;SDS_P2;PMS_P1;PMS_P2;Temp;Humidity;BMP_temperature;BMP_pressure;BME280_temperature;BME280_humidity;BME280_pressure;Samples;Min_cycle;Max_cycle;Signal;HPM_P1;HPM_P2
2022/03/19 00:02:25;;;;;;;63.50;33.95;;;5.40;99.90;;;;;;4974013;28;20027;-89
2022/03/19 00:04:50;;;;;;;67.07;33.90;;;5.40;99.90;;;;;;4967866;28;20082;-89
2022/03/19 00:07:16;;;;;;;67.45;34.42;;;5.40;99.90;;;;;;4962066;28;20031;-88
2022/03/19 00:09:42;;;;;;;68.70;33.83;;;5.40;99.90;;;;;;4960689;28;20039;-89
2022/03/19 00:12:12;;;;;;;66.00;33.15;;;5.40;99.90;;;;;;4958056;28;20129;-88
2022/03/19 00:14:37;;;;;;;60.85;32.28;;;5.30;99.90;;;;;;4973066;28;20596;-89
2022/03/19 00:17:03;;;;;;;67.10;33.90;;;5.30;99.90;;;;;;4971972;28;20035;-89
2022/03/19 00:19:29;;;;;;;68.93;33.92;;;5.30;99.90;;;;;;4980895;28;20054;-87
2022/03/19 00:21:55;;;;;;;66.25;31.75;;;5.30;99.90;;;;;;4989318;28;20022;-88
2022/03/19 00:24:21;;;;;;;63.55;33.85;;;5.30;99.90;;;;;;4989644;28;20034;-88
2022/03/19 00:26:46;;;;;;;66.05;31.42;;;5.30;99.90;;;;;;4971935;28;20093;-89
2022/03/19 00:29:12;;;;;;;65.18;32.63;;;5.30;99.90;;;;;;4963045;28;20035;-88
2022/03/19 00:31:37;;;;;;;68.53;34.10;;;5.30;99.90;;;;;;4955696;28;20035;-89
2022/03/19 00:34:03;;;;;;;65.63;33.70;;;5.30;99.90;;;;;;4976210;28;20082;-89
2022/03/19 00:36:28;;;;;;;64.32;33.25;;;5.30;99.90;;;;;;4974910;28;20023;-88
2022/03/19 00:38:54;;;;;;;60.38;31.23;;;5.30;99.90;;;;;;4961295;28;20027;-88
2022/03/19 00:41:21;;;;;;;69.72;34.58;;;5.20;99.90;;;;;;4955631;28;20022;-89
2022/03/19 00:43:47;;;;;;;66.25;34.03;;;5.20;99.90;;;;;;4970446;28;20073;-88
2022/03/19 00:46:13;;;;;;;67.72;34.55;;;5.20;99.90;;;;;;4974347;28;20023;-89
2022/03/19 00:48:40;;;;;;;66.72;34.63;;;5.20;99.90;;;;;;4969012;28;20384;-88
2022/03/19 00:51:05;;;;;;;69.50;33.72;;;5.20;99.90;;;;;;4976031;28;20395;-88
2022/03/19 00:53:31;;;;;;;69.80;35.15;;;5.20;99.90;;;;;;4967868;28;20122;-88
2022/03/19 00:55:57;;;;;;;63.55;34.60;;;5.20;99.90;;;;;;4953025;28;20034;-88
2022/03/19 00:58:22;;;;;;;63.15;33.30;;;5.20;99.90;;;;;;4969142;28;20474;-89
2022/03/19 01:00:48;;;;;;;63.95;33.03;;;5.20;99.90;;;;;;4976621;28;20023;-88
2022/03/19 01:03:15;;;;;;;73.28;34.80;;;5.10;99.90;;;;;;4958779;28;20779;-88
2022/03/19 01:05:42;;;;;;;68.38;34.33;;;5.10;99.90;;;;;;4975132;28;20057;-89
2022/03/19 01:08:08;;;;;;;62.92;32.55;;;5.10;99.90;;;;;;4957795;28;20042;-89
2022/03/19 01:10:35;;;;;;;65.35;33.38;;;5.10;99.90;;;;;;4974558;28;20062;-90
2022/03/19 01:13:03;;;;;;;62.08;31.23;;;5.10;99.90;;;;;;4965904;28;20113;-88
2022/03/19 01:15:29;;;;;;;66.32;34.38;;;5.10;99.90;;;;;;4965013;28;20472;-89
2022/03/19 01:17:55;;;;;;;63.30;34.83;;;5.10;99.90;;;;;;4958430;28;20027;-89
2022/03/19 01:20:21;;;;;;;68.10;34.83;;;5.10;99.90;;;;;;4969901;28;20023;-88
2022/03/19 01:22:47;;;;;;;72.03;33.70;;;5.10;99.90;;;;;;4967975;28;20399;-88
2022/03/19 01:25:15;;;;;;;67.35;34.10;;;5.10;99.90;;;;;;4965396;28;20026;-88
2022/03/19 01:27:44;;;;;;;68.88;34.65;;;5.00;99.90;;;;;;4969126;28;20135;-88
2022/03/19 01:30:11;;;;;;;68.03;33.75;;;5.00;99.90;;;;;;4965320;28;20053;-88
2022/03/19 01:32:38;;;;;;;65.47;34.10;;;5.00;99.90;;;;;;4974604;28;20054;-89
2022/03/19 01:35:04;;;;;;;67.85;35.22;;;5.00;99.90;;;;;;4972174;28;20077;-88
2022/03/19 01:37:30;;;;;;;69.50;35.35;;;5.00;99.90;;;;;;4973430;28;20534;-88
2022/03/19 01:39:56;;;;;;;68.60;35.17;;;4.90;99.90;;;;;;4959748;28;20058;-87
2022/03/19 01:42:26;;;;;;;63.03;32.80;;;4.90;99.90;;;;;;4948209;28;20037;-88
2022/03/19 01:44:53;;;;;;;70.32;33.85;;;4.90;99.90;;;;;;4971305;28;20679;-88
2022/03/19 01:47:19;;;;;;;65.00;33.53;;;4.90;99.90;;;;;;4970110;28;20030;-88
2022/03/19 01:49:45;;;;;;;67.80;34.53;;;4.90;99.90;;;;;;4974696;28;20034;-88
2022/03/19 01:52:11;;;;;;;71.50;35.15;;;4.90;99.90;;;;;;4960295;28;20117;-88
2022/03/19 01:54:39;;;;;;;68.75;34.45;;;4.90;99.90;;;;;;4975715;28;20387;-88
2022/03/19 01:57:06;;;;;;;69.75;35.10;;;4.90;99.90;;;;;;4976124;28;20034;-88
2022/03/19 01:59:34;;;;;;;78.13;35.53;;;4.90;99.90;;;;;;4959726;28;20030;-89
2022/03/19 02:02:06;;;;;;;69.68;34.88;;;4.80;99.90;;;;;;4974884;28;20038;-89
2022/03/19 02:04:34;;;;;;;75.78;35.85;;;4.80;99.90;;;;;;4963052;28;20690;-88
2022/03/19 02:07:01;;;;;;;75.30;36.28;;;4.80;99.90;;;;;;5015980;22;20081;-87
2022/03/19 02:09:28;;;;;;;69.65;35.72;;;4.80;99.90;;;;;;5007043;28;20017;-87
2022/03/19 02:11:53;;;;;;;68.95;34.53;;;4.80;99.90;;;;;;5020247;28;20045;-87
2022/03/19 02:14:19;;;;;;;70.43;35.08;;;4.80;99.90;;;;;;5030764;28;20034;-87
2022/03/19 02:16:46;;;;;;;72.68;35.72;;;4.70;99.90;;;;;;5018466;28;20037;-87
2022/03/19 02:19:11;;;;;;;70.45;34.42;;;4.70;99.90;;;;;;5018992;28;20037;-88
2022/03/19 02:21:41;;;;;;;58.53;29.90;;;4.70;99.90;;;;;;5027902;28;20013;-87
2022/03/19 02:26:51;;;;;;;68.53;34.10;;;4.70;99.90;;;;;;5036197;28;20093;-87
2022/03/19 02:29:17;;;;;;;67.78;35.15;;;4.70;99.90;;;;;;5018185;28;20018;-88
2022/03/19 02:31:45;;;;;;;71.55;35.50;;;4.60;99.90;;;;;;4997370;28;20030;-91
2022/03/19 02:34:10;;;;;;;67.18;35.80;;;4.60;99.90;;;;;;5005557;28;20462;-90
2022/03/19 02:36:42;;;;;;;70.18;35.47;;;4.60;99.90;;;;;;5000337;28;20026;-90
2022/03/19 02:39:09;;;;;;;72.00;35.58;;;4.60;99.90;;;;;;4996297;28;20030;-89
2022/03/19 02:41:35;;;;;;;69.40;35.90;;;4.60;99.90;;;;;;4998230;28;20486;-90
2022/03/19 02:44:00;;;;;;;64.18;32.88;;;4.60;99.90;;;;;;4996695;28;20033;-88
2022/03/19 02:46:37;;;;;;;66.55;34.47;;;4.60;99.90;;;;;;5004237;28;20044;-89
2022/03/19 02:49:03;;;;;;;69.97;34.75;;;4.60;99.90;;;;;;4996274;28;20053;-90
2022/03/19 02:51:29;;;;;;;69.70;34.85;;;4.60;99.90;;;;;;5005484;28;20025;-88
2022/03/19 02:53:54;;;;;;;74.55;36.28;;;4.50;99.90;;;;;;4995077;28;20034;-89
2022/03/19 02:56:20;;;;;;;67.95;34.58;;;4.50;99.90;;;;;;5002070;28;20525;-88
2022/03/19 02:58:45;;;;;;;66.55;33.88;;;4.50;99.90;;;;;;4995801;28;20418;-88
2022/03/19 03:01:12;;;;;;;69.28;34.70;;;4.50;99.90;;;;;;5000368;28;20079;-88
2022/03/19 03:03:38;;;;;;;63.90;33.75;;;4.60;99.90;;;;;;5006061;28;20030;-89
2022/03/19 03:06:03;;;;;;;74.10;34.28;;;4.50;99.90;;;;;;4999979;28;20505;-89
2022/03/19 03:08:29;;;;;;;68.05;33.22;;;4.50;99.90;;;;;;5003433;28;20030;-89
2022/03/19 03:10:55;;;;;;;65.47;33.25;;;4.50;99.90;;;;;;4986845;28;20033;-88
2022/03/19 03:13:20;;;;;;;75.85;35.97;;;4.50;99.90;;;;;;4992397;28;20038;-89
2022/03/19 03:15:46;;;;;;;69.40;33.97;;;4.50;99.90;;;;;;4997392;28;20049;-90
2022/03/19 03:18:11;;;;;;;63.75;32.33;;;4.40;99.90;;;;;;4991062;28;20037;-89
2022/03/19 03:20:38;;;;;;;70.47;35.15;;;4.40;99.90;;;;;;4984265;28;20044;-88
2022/03/19 03:23:04;;;;;;;69.70;34.35;;;4.40;99.90;;;;;;4992872;28;20454;-89
2022/03/19 03:25:30;;;;;;;69.55;34.35;;;4.40;99.90;;;;;;4998776;28;20038;-90
2022/03/19 03:27:55;;;;;;;69.38;34.88;;;4.40;99.90;;;;;;5010925;28;20381;-88
2022/03/19 03:30:21;;;;;;;68.82;35.03;;;4.30;99.90;;;;;;5011092;28;20033;-89
2022/03/19 03:32:47;;;;;;;71.85;34.65;;;4.30;99.90;;;;;;4993730;28;20048;-90
2022/03/19 03:35:12;;;;;;;66.82;33.35;;;4.30;99.90;;;;;;5002073;28;20075;-89
2022/03/19 03:37:38;;;;;;;69.57;34.70;;;4.30;99.90;;;;;;4999768;28;20408;-89
2022/03/19 03:40:05;;;;;;;74.18;34.45;;;4.30;99.90;;;;;;5007096;28;20022;-89
2022/03/19 03:42:31;;;;;;;71.97;35.08;;;4.30;99.90;;;;;;4996292;28;20036;-91
2022/03/19 03:44:58;;;;;;;73.35;34.83;;;4.30;99.90;;;;;;5005013;28;20018;-90
2022/03/19 03:47:27;;;;;;;71.55;34.72;;;4.30;99.90;;;;;;4985612;28;20026;-89
2022/03/19 03:49:53;;;;;;;69.10;35.45;;;4.30;99.90;;;;;;4995656;28;20218;-90
2022/03/19 03:52:20;;;;;;;71.75;34.95;;;4.30;99.90;;;;;;4992767;28;20025;-90
2022/03/19 03:54:46;;;;;;;69.95;34.83;;;4.30;99.90;;;;;;5008059;28;20022;-89
2022/03/19 03:57:12;;;;;;;71.18;32.92;;;4.30;99.90;;;;;;4993760;28;20032;-90
2022/03/19 03:59:37;;;;;;;72.22;34.97;;;4.30;99.90;;;;;;5002225;28;20030;-89
2022/03/19 04:02:03;;;;;;;68.45;35.03;;;4.30;99.90;;;;;;5010645;28;20022;-90
2022/03/19 04:04:28;;;;;;;68.00;35.85;;;4.30;99.90;;;;;;4998884;28;20445;-90
2022/03/19 04:06:54;;;;;;;69.93;33.53;;;4.20;99.90;;;;;;4996071;28;20072;-88
2022/03/19 04:09:21;;;;;;;72.60;35.50;;;4.20;99.90;;;;;;4995765;28;20096;-89
2022/03/19 04:11:47;;;;;;;68.05;34.30;;;4.20;99.90;;;;;;4995900;28;20029;-89
2022/03/19 04:14:13;;;;;;;72.18;35.90;;;4.20;99.90;;;;;;4992979;28;20391;-89
2022/03/19 04:16:38;;;;;;;71.55;34.90;;;4.10;99.90;;;;;;4997304;28;20026;-89
2022/03/19 04:19:04;;;;;;;76.97;36.90;;;4.10;99.90;;;;;;5004357;28;20472;-89
2022/03/19 04:21:30;;;;;;;72.40;33.83;;;4.10;99.90;;;;;;4998715;28;20121;-89
2022/03/19 04:23:56;;;;;;;73.38;35.67;;;4.10;99.90;;;;;;5002552;28;20108;-89
2022/03/19 04:26:21;;;;;;;74.95;35.00;;;4.00;99.90;;;;;;5015605;28;20022;-90
2022/03/19 04:28:47;;;;;;;72.05;34.78;;;4.00;99.90;;;;;;5017517;28;20102;-89
2022/03/19 04:31:12;;;;;;;77.30;34.25;;;4.00;99.90;;;;;;4997729;28;20037;-88
2022/03/19 04:33:38;;;;;;;71.05;34.95;;;4.00;99.90;;;;;;5003920;28;20026;-88
2022/03/19 04:38:48;;;;;;;68.85;34.70;;;3.90;99.90;;;;;;5012309;28;20109;-88
2022/03/19 04:41:14;;;;;;;69.90;34.90;;;3.90;99.90;;;;;;5014397;28;20045;-88
2022/03/19 04:43:40;;;;;;;73.50;35.75;;;3.90;99.90;;;;;;5002165;28;20041;-90
2022/03/19 04:46:06;;;;;;;69.25;35.25;;;3.80;99.90;;;;;;5000511;28;20089;-89
2022/03/19 04:48:31;;;;;;;67.50;33.83;;;3.80;99.90;;;;;;5000729;28;20401;-90
2022/03/19 04:50:57;;;;;;;68.90;35.80;;;3.80;99.90;;;;;;5002101;28;20026;-88
2022/03/19 04:53:23;;;;;;;69.65;34.95;;;3.80;99.90;;;;;;4996834;28;20041;-89
2022/03/19 04:55:49;;;;;;;71.93;36.35;;;3.80;99.90;;;;;;5004938;28;20686;-89
2022/03/19 04:58:14;;;;;;;75.88;36.17;;;3.80;99.90;;;;;;5008424;28;20497;-89
2022/03/19 05:00:41;;;;;;;71.05;34.97;;;3.80;99.90;;;;;;5016892;28;20038;-87
2022/03/19 05:03:07;;;;;;;74.30;36.15;;;3.80;99.90;;;;;;5025898;28;20014;-87
2022/03/19 05:05:33;;;;;;;74.43;34.60;;;3.90;99.90;;;;;;5006354;28;20038;-89
2022/03/19 05:07:59;;;;;;;67.95;34.72;;;3.90;99.90;;;;;;4986223;28;20030;-90
2022/03/19 05:13:09;;;;;;;68.82;35.90;;;3.90;99.90;;;;;;5014376;28;20118;-89
2022/03/19 05:15:35;;;;;;;67.95;35.00;;;3.90;99.90;;;;;;4997962;28;20045;-88
2022/03/19 05:18:01;;;;;;;75.72;36.60;;;3.90;99.90;;;;;;5001201;28;20018;-90
2022/03/19 05:20:27;;;;;;;71.88;35.17;;;3.90;99.90;;;;;;5005852;28;20026;-89
2022/03/19 05:22:52;;;;;;;69.03;34.28;;;3.90;99.90;;;;;;5006970;28;20033;-89
2022/03/19 05:25:18;;;;;;;71.00;36.15;;;4.00;99.90;;;;;;5003915;28;20049;-88
2022/03/19 05:27:44;;;;;;;70.40;35.40;;;4.00;99.90;;;;;;4998319;28;20026;-90
2022/03/19 05:30:10;;;;;;;69.18;35.10;;;3.90;99.90;;;;;;5002132;28;20034;-91
2022/03/19 05:32:37;;;;;;;70.65;35.55;;;3.90;99.90;;;;;;5017677;28;20489;-90
2022/03/19 05:35:04;;;;;;;65.55;32.72;;;3.90;99.90;;;;;;4990727;28;20053;-89
2022/03/19 05:37:30;;;;;;;68.82;34.22;;;4.00;99.90;;;;;;5016681;28;20022;-88
2022/03/19 05:39:56;;;;;;;68.25;34.90;;;3.90;99.90;;;;;;5011257;28;20626;-89
2022/03/19 05:42:22;;;;;;;69.15;35.38;;;3.90;99.90;;;;;;5020817;28;20481;-88
2022/03/19 05:44:48;;;;;;;66.03;34.67;;;3.90;99.90;;;;;;5019498;28;20030;-90
2022/03/19 05:47:14;;;;;;;67.65;34.22;;;3.90;99.90;;;;;;5014384;28;20670;-88
2022/03/19 05:49:41;;;;;;;66.22;33.45;;;3.90;99.90;;;;;;4996334;28;20049;-89
2022/03/19 05:52:07;;;;;;;70.65;34.08;;;3.90;99.90;;;;;;5020982;28;20026;-89
2022/03/19 05:54:32;;;;;;;68.15;33.80;;;4.00;99.90;;;;;;5006929;28;20014;-87
2022/03/19 05:56:58;;;;;;;64.10;33.58;;;4.00;99.90;;;;;;5007613;28;20037;-89
2022/03/19 05:59:24;;;;;;;64.15;32.08;;;4.00;99.90;;;;;;4997511;28;20034;-88
2022/03/19 06:01:50;;;;;;;68.28;34.38;;;4.00;99.90;;;;;;5001546;28;20663;-89
2022/03/19 06:04:15;;;;;;;65.78;34.15;;;4.10;99.90;;;;;;4994748;28;20033;-89
2022/03/19 06:06:41;;;;;;;67.85;32.67;;;4.10;99.90;;;;;;5007007;28;20044;-89
2022/03/19 06:09:07;;;;;;;68.78;34.35;;;4.10;99.90;;;;;;4998294;28;20029;-88
2022/03/19 06:11:33;;;;;;;61.45;32.58;;;4.10;99.90;;;;;;4997787;28;20101;-89
2022/03/19 06:13:58;;;;;;;62.63;31.48;;;4.10;99.90;;;;;;5000923;28;20031;-89
2022/03/19 06:16:24;;;;;;;68.15;33.33;;;4.10;99.90;;;;;;5005080;28;20028;-89
2022/03/19 06:18:50;;;;;;;62.90;32.25;;;4.10;99.90;;;;;;4995069;28;20704;-89
2022/03/19 06:21:17;;;;;;;64.07;32.30;;;4.20;99.90;;;;;;4995841;28;20029;-88
2022/03/19 06:23:45;;;;;;;66.40;32.75;;;4.30;99.90;;;;;;5004901;28;20072;-90
2022/03/19 06:26:11;;;;;;;64.43;32.08;;;4.40;99.90;;;;;;5005434;28;20562;-89
2022/03/19 06:28:36;;;;;;;60.92;32.00;;;4.50;99.90;;;;;;4988734;28;20030;-89
2022/03/19 06:31:02;;;;;;;64.90;32.92;;;4.70;99.90;;;;;;5005286;28;20444;-88
2022/03/19 06:33:28;;;;;;;65.32;33.42;;;4.70;99.90;;;;;;4992300;28;20174;-91
2022/03/19 06:38:37;;;;;;;63.65;32.55;;;5.00;99.90;;;;;;5010922;28;20059;-91
2022/03/19 06:41:03;;;;;;;59.03;31.38;;;5.20;99.90;;;;;;4994085;28;20097;-92
2022/03/19 06:43:29;;;;;;;63.50;30.73;;;5.30;99.90;;;;;;5003176;28;20036;-91
2022/03/19 06:45:57;;;;;;;66.13;32.28;;;5.50;99.90;;;;;;4992245;28;20082;-90
2022/03/19 06:48:23;;;;;;;65.15;30.52;;;5.60;99.90;;;;;;4991486;28;20030;-90
2022/03/19 06:50:50;;;;;;;56.45;31.50;;;5.70;99.90;;;;;;4999590;28;20034;-90
2022/03/19 06:53:16;;;;;;;63.28;30.02;;;5.90;99.90;;;;;;4995300;28;20022;-90
2022/03/19 06:55:42;;;;;;;55.92;30.88;;;6.00;99.90;;;;;;4995639;28;20026;-90
2022/03/19 06:58:07;;;;;;;58.13;30.23;;;6.20;99.90;;;;;;5002374;28;20026;-91
2022/03/19 07:00:33;;;;;;;58.53;28.90;;;6.40;99.90;;;;;;5008772;28;20025;-90
2022/03/19 07:02:59;;;;;;;53.80;29.50;;;6.60;99.90;;;;;;5013817;28;20399;-88
2022/03/19 07:05:26;;;;;;;60.80;30.02;;;6.80;99.90;;;;;;4998829;28;20025;-91
2022/03/19 07:07:53;;;;;;;56.05;29.38;;;7.10;99.90;;;;;;4996098;28;20052;-91
2022/03/19 07:10:19;;;;;;;51.13;28.88;;;7.30;99.90;;;;;;4997739;28;20033;-90
2022/03/19 07:12:46;;;;;;;47.47;26.75;;;7.60;99.90;;;;;;5001327;28;20081;-91
2022/03/19 07:15:17;;;;;;;52.20;26.90;;;7.80;99.90;;;;;;5011483;28;20034;-90
2022/03/19 07:17:43;;;;;;;52.30;27.60;;;8.00;99.90;;;;;;4989893;28;20542;-90
2022/03/19 07:20:11;;;;;;;48.67;27.75;;;8.20;99.90;;;;;;4997613;28;20030;-90
2022/03/19 07:22:46;;;;;;;47.78;27.05;;;8.30;99.90;;;;;;4993493;28;20049;-90
2022/03/19 07:25:11;;;;;;;47.90;26.50;;;8.60;99.90;;;;;;5012571;28;20504;-89
2022/03/19 07:27:37;;;;;;;47.33;26.48;;;9.00;99.90;;;;;;4987184;28;20038;-91
2022/03/19 07:30:03;;;;;;;49.67;27.27;;;9.40;99.90;;;;;;5007436;28;20083;-91
2022/03/19 07:32:29;;;;;;;43.30;26.33;;;9.60;99.90;;;;;;4994905;28;20747;-92
2022/03/19 07:34:55;;;;;;;48.55;25.38;;;9.70;99.90;;;;;;4994495;28;20018;-90
2022/03/19 07:37:20;;;;;;;45.95;24.90;;;9.70;99.90;;;;;;4994194;28;20029;-91
2022/03/19 07:39:46;;;;;;;45.95;25.45;;;9.90;99.90;;;;;;5007260;28;20120;-91
2022/03/19 07:42:12;;;;;;;49.53;26.98;;;10.50;99.70;;;;;;5004580;28;20367;-91
2022/03/19 07:44:37;;;;;;;44.58;25.88;;;11.10;98.90;;;;;;4988505;28;20029;-91
2022/03/19 07:47:03;;;;;;;40.92;24.52;;;11.50;97.60;;;;;;4986554;28;20038;-91
2022/03/19 07:49:29;;;;;;;44.17;23.95;;;11.90;96.50;;;;;;4988209;28;20027;-90
2022/03/19 07:51:55;;;;;;;45.88;25.40;;;12.30;95.50;;;;;;4984242;28;20076;-90
2022/03/19 07:54:27;;;;;;;44.20;24.35;;;12.30;94.90;;;;;;4984466;28;20113;-90
2022/03/19 07:56:53;;;;;;;43.00;23.85;;;12.30;95.10;;;;;;4991316;28;20117;-90
2022/03/19 07:59:19;;;;;;;39.40;23.33;;;12.20;95.50;;;;;;4991623;28;20076;-91
2022/03/19 08:01:44;;;;;;;38.22;23.48;;;11.90;95.70;;;;;;5007885;28;20041;-90
2022/03/19 08:04:10;;;;;;;46.03;24.35;;;11.90;96.40;;;;;;5013536;28;20098;-90
2022/03/19 08:06:37;;;;;;;41.08;23.80;;;12.00;96.40;;;;;;5041591;22;20096;-87
2022/03/19 08:09:04;;;;;;;39.92;24.35;;;12.40;95.50;;;;;;4991774;28;20022;-88
2022/03/19 08:11:31;;;;;;;39.97;22.90;;;13.10;94.50;;;;;;5007767;28;20022;-88
2022/03/19 08:13:56;;;;;;;42.97;23.55;;;13.80;92.90;;;;;;5000256;28;20018;-87
2022/03/19 08:16:24;;;;;;;38.70;23.52;;;14.40;90.90;;;;;;5012222;28;20038;-87
2022/03/19 08:18:50;;;;;;;40.35;23.83;;;14.90;86.70;;;;;;5010085;28;20049;-87
2022/03/19 08:21:15;;;;;;;47.47;25.70;;;15.20;81.70;;;;;;5012281;28;20089;-87
2022/03/19 08:23:41;;;;;;;39.33;24.38;;;15.50;79.20;;;;;;4997927;28;20029;-86
2022/03/19 08:26:07;;;;;;;41.20;23.23;;;15.60;76.80;;;;;;5023171;28;20022;-87
2022/03/19 08:28:32;;;;;;;44.15;24.65;;;15.90;75.70;;;;;;5011727;28;20049;-87
2022/03/19 08:30:58;;;;;;;44.03;25.23;;;16.10;73.80;;;;;;5011703;28;20104;-87
2022/03/19 08:33:25;;;;;;;41.88;24.27;;;16.00;72.10;;;;;;4996186;28;20033;-87
2022/03/19 08:35:51;;;;;;;39.55;24.17;;;15.90;71.90;;;;;;5021966;28;20028;-87
2022/03/19 08:41:00;;;;;;;42.70;24.42;;;15.60;72.70;;;;;;5010031;28;20061;-88
2022/03/19 08:43:26;;;;;;;39.78;24.20;;;15.60;72.30;;;;;;4994064;28;20391;-88
2022/03/19 08:45:52;;;;;;;43.55;25.20;;;15.40;72.10;;;;;;4976946;28;20462;-88
2022/03/19 08:48:18;;;;;;;47.03;25.45;;;15.20;72.50;;;;;;5013774;28;20011;-87
2022/03/19 08:50:45;;;;;;;49.50;24.58;;;15.20;73.20;;;;;;5017018;28;20053;-87
2022/03/19 08:53:11;;;;;;;32.88;18.77;;;15.30;73.50;;;;;;5035540;28;20033;-87
2022/03/19 08:55:37;;;;;;;42.40;25.20;;;15.20;73.00;;;;;;5007526;28;20069;-87
2022/03/19 08:58:03;;;;;;;46.45;26.63;;;15.00;72.50;;;;;;4999990;28;20018;-87
2022/03/19 09:00:29;;;;;;;44.72;26.80;;;14.90;72.60;;;;;;4997893;28;20018;-87
2022/03/19 09:02:57;;;;;;;46.28;26.42;;;14.80;72.60;;;;;;5015728;28;20030;-87
2022/03/19 09:05:24;;;;;;;42.70;25.65;;;14.70;73.20;;;;;;4998513;28;20096;-87
2022/03/19 09:07:50;;;;;;;46.10;26.20;;;14.60;72.20;;;;;;4998682;28;20497;-87
2022/03/19 09:10:16;;;;;;;41.90;25.58;;;14.60;73.20;;;;;;4999377;28;20076;-87
2022/03/19 09:12:41;;;;;;;44.33;25.80;;;14.60;73.20;;;;;;4999921;28;20030;-87
2022/03/19 09:15:09;;;;;;;44.88;25.52;;;14.50;73.30;;;;;;5008998;28;20033;-88
2022/03/19 09:17:35;;;;;;;43.80;23.73;;;14.50;72.10;;;;;;4996307;28;20478;-88
2022/03/19 09:20:01;;;;;;;49.50;25.65;;;14.40;72.50;;;;;;4996649;28;20029;-88
2022/03/19 09:22:26;;;;;;;40.30;22.98;;;14.40;72.60;;;;;;4996518;28;20092;-88
2022/03/19 09:24:52;;;;;;;40.17;23.40;;;14.30;72.50;;;;;;5014188;28;20026;-88
2022/03/19 09:27:17;;;;;;;38.28;22.45;;;14.30;73.00;;;;;;5013843;28;20022;-88
2022/03/19 09:29:43;;;;;;;37.75;22.17;;;14.30;73.00;;;;;;5000016;28;20034;-88
2022/03/19 09:32:12;;;;;;;33.92;18.67;;;14.40;73.20;;;;;;4997623;28;20053;-88
2022/03/19 09:34:38;;;;;;;32.15;19.17;;;14.40;71.70;;;;;;4997742;28;20581;-88
2022/03/19 09:37:03;;;;;;;23.25;14.63;;;14.30;72.10;;;;;;4996926;28;20156;-88
2022/03/19 09:39:29;;;;;;;20.80;12.43;;;14.30;72.20;;;;;;4991651;28;20405;-88
2022/03/19 09:41:55;;;;;;;18.67;12.10;;;14.30;71.90;;;;;;4998627;28;20109;-89
2022/03/19 09:44:25;;;;;;;21.50;12.02;;;14.20;71.10;;;;;;4997131;28;20038;-87
2022/03/19 09:46:51;;;;;;;20.58;11.65;;;14.20;70.40;;;;;;4993797;28;20048;-88
2022/03/19 09:49:17;;;;;;;20.55;11.88;;;14.00;69.90;;;;;;5014247;28;20091;-88
2022/03/19 09:51:51;;;;;;;15.35;9.35;;;13.90;69.90;;;;;;4998747;28;20484;-88
2022/03/19 09:54:17;;;;;;;21.90;11.50;;;13.90;69.80;;;;;;4994770;28;20022;-89
2022/03/19 09:56:43;;;;;;;14.73;9.02;;;14.00;70.20;;;;;;4994105;28;20056;-89
2022/03/19 09:59:09;;;;;;;17.55;9.70;;;14.00;69.40;;;;;;5003110;28;20061;-89
2022/03/19 10:01:37;;;;;;;17.63;10.00;;;13.90;68.50;;;;;;5004102;28;20091;-89
2022/03/19 10:04:11;;;;;;;19.33;9.90;;;13.90;68.40;;;;;;5012371;28;20026;-88
2022/03/19 10:09:48;;;;;;;14.95;9.02;;;13.90;68.20;;;;;;5011022;28;20033;-88
2022/03/19 10:12:23;;;;;;;15.38;8.48;;;14.00;68.40;;;;;;5006106;28;20498;-88
2022/03/19 10:14:51;;;;;;;16.85;9.57;;;14.10;67.80;;;;;;5007505;28;20441;-88
2022/03/19 10:17:27;;;;;;;17.33;9.38;;;14.20;68.00;;;;;;5016435;28;20022;-88
2022/03/19 10:19:53;;;;;;;19.00;9.10;;;14.40;67.90;;;;;;5001382;28;20033;-89
2022/03/19 10:22:26;;;;;;;21.05;10.05;;;14.70;67.00;;;;;;4991751;28;20022;-89
2022/03/19 10:25:00;;;;;;;19.55;9.88;;;14.90;66.20;;;;;;5013990;28;20074;-88
2022/03/19 10:27:32;;;;;;;16.42;9.63;;;14.80;66.10;;;;;;4985256;28;20030;-88
2022/03/19 10:30:19;;;;;;;17.13;9.32;;;14.60;65.80;;;;;;5001402;28;20083;-88
2022/03/19 10:32:51;;;;;;;16.92;10.55;;;14.20;66.30;;;;;;5000467;28;20025;-88
2022/03/19 10:35:34;;;;;;;23.70;10.10;;;13.70;66.40;;;;;;5005682;28;20095;-89
2022/03/19 10:38:16;;;;;;;17.85;10.07;;;13.40;66.60;;;;;;4995739;28;20022;-88
2022/03/19 10:40:43;;;;;;;16.92;10.35;;;13.40;66.90;;;;;;4992306;28;20386;-88
2022/03/19 10:43:11;;;;;;;18.73;9.98;;;13.50;66.90;;;;;;5002823;28;20106;-88
2022/03/19 10:45:48;;;;;;;18.15;9.77;;;13.70;66.90;;;;;;4997312;28;20053;-88
2022/03/19 10:48:19;;;;;;;20.45;11.20;;;13.90;66.30;;;;;;4997217;28;20022;-89
2022/03/19 10:50:45;;;;;;;18.48;10.43;;;14.20;66.50;;;;;;4986168;28;20030;-89
2022/03/19 10:53:12;;;;;;;19.05;9.80;;;14.10;66.50;;;;;;4995718;28;20429;-88
2022/03/19 10:55:38;;;;;;;15.30;8.98;;;13.90;66.50;;;;;;4993628;28;20372;-88
2022/03/19 10:58:04;;;;;;;19.55;9.27;;;13.80;65.50;;;;;;5010390;28;20026;-88
2022/03/19 11:00:29;;;;;;;12.90;7.10;;;13.70;65.60;;;;;;5005856;28;20101;-89
2022/03/19 11:03:01;;;;;;;13.52;7.90;;;13.50;65.50;;;;;;4995741;28;20371;-88
2022/03/19 11:05:32;;;;;;;14.82;7.40;;;13.20;64.80;;;;;;4993570;28;20033;-88
2022/03/19 11:08:00;;;;;;;13.95;7.85;;;12.90;64.80;;;;;;5012165;28;20497;-88
2022/03/19 11:10:28;;;;;;;16.92;7.18;;;13.00;65.10;;;;;;4985456;28;20037;-88
2022/03/19 11:12:58;;;;;;;15.07;6.95;;;13.10;64.90;;;;;;4997419;28;20030;-88
2022/03/19 11:15:28;;;;;;;13.48;7.43;;;13.20;64.50;;;;;;4995005;28;20316;-88
2022/03/19 11:17:56;;;;;;;16.15;8.32;;;13.20;64.30;;;;;;5016394;28;20053;-89
2022/03/19 11:20:22;;;;;;;14.65;7.28;;;13.40;64.40;;;;;;4998431;28;20044;-89
2022/03/19 11:22:54;;;;;;;14.20;7.10;;;13.60;64.50;;;;;;5012564;28;20021;-89
2022/03/19 11:25:25;;;;;;;16.08;6.57;;;13.90;64.30;;;;;;4989890;28;20026;-89
2022/03/19 11:28:07;;;;;;;10.65;6.53;;;14.30;64.30;;;;;;4995635;28;20040;-89
2022/03/19 11:30:41;;;;;;;11.57;5.97;;;14.50;63.70;;;;;;4995468;28;20041;-88
2022/03/19 11:33:21;;;;;;;11.27;5.55;;;14.60;63.30;;;;;;4996445;28;20084;-89
2022/03/19 11:35:54;;;;;;;9.52;5.00;;;14.50;63.90;;;;;;4997798;28;20120;-88
2022/03/19 11:38:20;;;;;;;;;;;14.40;62.90;;;;;;5015892;28;20043;-89
2022/03/19 11:40:58;;;;;;;9.32;5.30;;;14.30;63.70;;;;;;5016003;28;19913;-88
2022/03/19 11:43:30;;;;;;;8.20;4.75;;;14.30;62.30;;;;;;4986679;28;20075;-88
2022/03/19 11:46:00;;;;;;;;;;;14.20;62.00;;;;;;4995083;28;20033;-89
2022/03/19 11:48:35;;;;;;;9.70;5.03;;;14.20;63.50;;;;;;4998804;28;19992;-89
2022/03/19 11:51:34;;;;;;;7.28;4.97;;;14.30;62.20;;;;;;5013868;28;20022;-88
2022/03/19 11:54:02;;;;;;;11.98;5.50;;;14.30;61.60;;;;;;4995585;28;20034;-89
2022/03/19 11:56:48;;;;;;;7.05;4.03;;;14.40;61.60;;;;;;4993287;28;21515;-89
2022/03/19 11:59:18;;;;;;;8.55;4.05;;;14.50;61.20;;;;;;4980686;28;20040;-87
2022/03/19 12:01:49;;;;;;;10.07;4.70;;;14.80;60.50;;;;;;5010329;28;20020;-88
2022/03/19 12:04:18;;;;;;;9.10;4.40;;;14.70;59.60;;;;;;5018696;28;20086;-89
2022/03/19 12:06:54;;;;;;;7.72;4.78;;;14.60;60.20;;;;;;5034019;28;20032;-88
2022/03/19 12:09:31;;;;;;;8.07;4.53;;;14.50;60.00;;;;;;5010147;28;20458;-88
2022/03/19 12:12:15;;;;;;;8.40;4.28;;;14.20;60.50;;;;;;5009422;28;20041;-88
2022/03/19 12:14:44;;;;;;;7.47;4.68;;;14.00;60.60;;;;;;5018229;28;20205;-88
2022/03/19 12:17:25;;;;;;;9.85;4.32;;;14.10;61.10;;;;;;4995374;28;20026;-88
2022/03/19 12:19:59;;;;;;;9.68;4.10;;;14.20;61.00;;;;;;4993277;28;20053;-89
2022/03/19 12:22:30;;;;;;;6.78;3.80;;;14.30;61.10;;;;;;4990033;28;20343;-88
2022/03/19 12:25:18;;;;;;;6.78;4.13;;;14.50;60.60;;;;;;4995677;28;20092;-89
2022/03/19 12:28:15;;;;;;;7.10;3.78;;;14.30;60.30;;;;;;4998423;28;20486;-89
2022/03/19 12:30:50;;;;;;;6.68;4.10;;;14.30;59.90;;;;;;5003490;28;20040;-89
2022/03/19 12:33:16;;;;;;;5.57;3.33;;;14.20;59.70;;;;;;4999416;28;20030;-88
2022/03/19 12:35:47;;;;;;;7.25;3.67;;;14.40;60.70;;;;;;5003634;28;20101;-90
2022/03/19 12:38:25;;;;;;;5.35;3.10;;;14.50;59.50;;;;;;5017012;28;20033;-90
2022/03/19 12:43:38;;;;;;;6.50;3.55;;;14.70;59.10;;;;;;5006753;28;20048;-90
2022/03/19 12:46:05;;;;;;;6.05;3.35;;;14.70;58.50;;;;;;5015745;28;20589;-90
2022/03/19 12:48:32;;;;;;;5.80;3.53;;;14.50;58.10;;;;;;5017204;28;20478;-89
2022/03/19 12:50:58;;;;;;;5.75;2.85;;;14.50;58.00;;;;;;5000533;28;20114;-89
2022/03/19 12:53:36;;;;;;;4.53;2.55;;;14.50;57.80;;;;;;5000792;28;20025;-90
2022/03/19 12:56:15;;;;;;;5.57;2.63;;;14.60;56.80;;;;;;5016716;28;20529;-90
2022/03/19 12:58:44;;;;;;;3.35;2.10;;;14.70;56.00;;;;;;5006217;28;20029;-88